TAF KPDT
KPDT 081724Z 0818/0918 25015KT P6SM BKN040 OVC070 FM082000 27022G32KT P6SM SCT060 FM090200 25014G22KT P6SM SCT060 FM090600 24012KT P6SM SCT250 FM091000 24012G20KT P6SM BKN060=
METAR KPDT
WC KPDT
WS KPDT
WV KPDT